Parres, Spain
Current Conditions -  °F | °C
As of 11:30 PM on Saturday 24 Jan 2015 (Local Time) from LEAS Reporting Station
Drizzle Drizzle  
Wind Chill: 46°   Ceiling: 1800
Heat Index: 48°   Visibility: 3mi
Dew Point: 48°   Wind: 5mph
Humidity: 100%   Direction: 110°ESE
Pressure: 30.56"   Gusts: NA
Location:  43.35°N, 5.15°W
Report Text: LEAS 242230Z 11004KT 070V150 5000 -DZ FEW004 SCT010 BKN018 09/09 Q1035 TEMPO 3000 -RA BKN010
Loading
Personal Weather Stations






























Interactive Weather Map New forecast layout! Learn more

10-Day Weather Forecast

Advertisements
Track Severe Weather on mobile